Eastport, NY (11941)

1:28 PM EDT on July 28, 2016 (GMT -0400)
Newport Beach | | Change Station

Elev 30 ft 40.81 °N, 72.73 °W | Updated 26 seconds ago

Clear
Clear
80.1 °F
Feels Like 85 °F
N
4.0
Wind Variable Wind from West
Gusts 6.0 mph

Today
High -- | Low -- °F
--% Chance of Precip.
Yesterday
High -- | Low -- °F
Precip. -- in
Pressure 29.92 in
Visibility 10.0 miles
Clouds Clear
Heat Index 85 °F
Dew Point 76 °F
Humidity 87%
Rainfall 0.00 in
Snow Depth Not available.
5:43 AM 8:10 PM
Waning Crescent, 30% visible
METAR KFOK 281653Z VRB06KT 10SM CLR 28/22 A2992 RMK AO2 SLP132 T02830222
Pressure 29.92 in
Visibility 10.0 miles
Clouds Clear
Heat Index 85 °F
Dew Point 76 °F
Humidity 87%
Rainfall 0.00 in
Snow Depth Not available.
5:43 AM 8:10 PM
Waning Crescent, 30% visible
METAR KFOK 281653Z VRB06KT 10SM CLR 28/22 A2992 RMK AO2 SLP132 T02830222

10-Day Weather Forecast

Almanac

Astronomy

Jul. 28, 2016 Rise Set
Actual Time
Civil Twilight
Nautical Twilight
Astronomical Twilight
Moon
Length of Visible Light
Length of Day
Tomorrow will be .
, % of the Moon is Illuminated

Today's Extremes

State Highs State Lows

Community

WunderPhotos

Upload Photos

1,928,163 photos uploaded!

WunderBlog® & News

Nearby

Air Quality

  Air Quality AQ Index Pollutant
Not available.

Snow Depth

Station Depth Elevation

Earthquake Activity

City Distance Mag. Time & Date
Minimum magnitude displayed is 2.5.

Coastal Water Temperatures

Place Temperature

Stations

Nearby Weather Stations

Station Location Temp. Windchill Dew Point Humidity Wind Precip. Elev Updated Type
                   

Watches & Warnings

There are currently no watches in effect.